Latest Weather Observations for Hogan Island

IDT60801

Issued at 3:41 pm EST Wednesday 20 June 2018 (issued every 10 minutes, with the page automatically refreshed every 10 minutes)

About weather observations | Map of weather stations | Latest weather observations for TAS | Other Formats
Station Details ID: 200838 Name: HOGAN ISLAND Lat: -39.22 Lon: 146.98 Height: 116.0 m
Data from the previous 72 hours. | See also: Recent months at Hogan Island
Date/Time
EST
Temp
°C
App
Temp
°C
Dew
Point
°C
Rel
Hum
%
Delta-T
°C
Wind Press
QNH
hPa
Press
MSL
hPa
Rain since
9am
mm
Dir  Spd
km/h
Gust
km/h
Spd
kts
Gust
kts
20/03:30pm 11.5 6.1 7.8 78 1.8 NNE 26 32 14 17 1026.5 - 0.0
20/03:00pm 11.7 5.9 8.0 78 1.8 NNE 28 33 15 18 1026.5 1026.7 0.0
20/02:30pm 12.0 6.3 8.5 79 1.7 NNE 28 33 15 18 1026.5 - 0.0
20/02:00pm 12.4 6.8 8.9 79 1.8 NNE 28 33 15 18 1026.5 - 0.0
20/01:30pm 12.6 6.2 8.5 76 2.1 NNE 32 37 17 20 1026.7 - 0.0
20/01:00pm 13.5 7.3 9.2 75 2.2 NNE 32 37 17 20 1027.0 - 0.0
20/12:30pm 12.9 6.6 8.8 76 2.1 NNE 32 35 17 19 1027.3 - 0.0
20/12:00pm 13.2 6.9 9.1 76 2.1 NNE 32 35 17 19 1027.7 1027.9 0.0
20/11:30am 13.5 7.3 9.4 76 2.1 NNE 32 37 17 20 1028.0 - 0.0
20/11:00am 13.6 7.8 9.5 76 2.1 NNE 30 35 16 19 1028.3 - 0.0
20/10:30am 13.1 7.3 9.4 78 1.9 NNE 30 33 16 18 1028.3 - 0.0
20/10:00am 12.6 6.7 8.9 78 1.9 NNE 30 35 16 19 1028.6 - 0.0
20/09:30am 12.6 7.1 9.2 80 1.7 NNE 28 33 15 18 1028.6 - 0.0
20/09:00am 12.7 7.4 9.9 83 1.4 NE 28 33 15 18 1028.5 1028.7 0.0
20/08:30am 11.6 6.5 9.2 85 1.2 NE 26 33 14 18 1028.2 - 0.0
20/08:00am 11.4 6.2 9.0 85 1.2 NE 26 32 14 17 1028.2 - 0.0
20/07:30am 10.9 5.7 8.7 86 1.1 NNE 26 30 14 16 1028.0 - 0.0
20/07:00am 10.8 6.3 8.6 86 1.1 NNE 22 28 12 15 1027.9 - 0.0
20/06:30am 10.9 5.7 8.7 86 1.1 NNE 26 32 14 17 1027.7 - 0.0
20/06:00am 11.0 6.2 8.8 86 1.1 NNE 24 28 13 15 1027.7 1027.9 0.0
20/05:30am 11.1 5.5 8.8 86 1.1 NNE 28 33 15 18 1027.4 - 0.0
20/05:00am 11.1 5.5 8.8 86 1.1 NNE 28 33 15 18 1027.2 - 0.0
20/04:30am 11.1 5.9 8.8 86 1.1 NNE 26 30 14 16 1027.3 - 0.0
20/04:00am 11.5 6.3 8.9 84 1.3 NE 26 33 14 18 1027.3 - 0.0
20/03:30am 12.1 5.8 8.9 81 1.6 NE 32 39 17 21 1027.5 - 0.0
20/03:00am 11.8 5.5 9.0 83 1.4 NE 32 39 17 21 1027.7 1027.9 0.0
20/02:30am 11.5 4.6 8.9 84 1.3 NE 35 43 19 23 1027.2 - 0.0
20/02:00am 11.6 4.7 8.8 83 1.4 NE 35 43 19 23 1027.4 - 0.0
20/01:30am 11.4 4.8 8.6 83 1.4 NE 33 43 18 23 1027.4 - 0.0
20/01:00am 11.6 4.3 8.8 83 1.4 ENE 37 43 20 23 1027.4 - 0.0
20/12:30am 11.6 3.9 8.8 83 1.4 ENE 39 44 21 24 1027.7 - 0.0
20/12:00am 11.4 5.0 8.6 83 1.4 ENE 32 37 17 20 1028.2 1028.4 0.0
 
Date/Time
EST
Temp
°C
App
Temp
°C
Dew
Point
°C
Rel
Hum
%
Delta-T
°C
Wind Press
QNH
hPa
Press
MSL
hPa
Rain since
9am
mm
Dir  Spd
km/h
Gust
km/h
Spd
kts
Gust
kts
19/11:30pm 11.4 5.4 8.6 83 1.4 ENE 30 35 16 19 1029.0 - 0.0
19/11:00pm 11.3 5.3 8.5 83 1.4 ENE 30 35 16 19 1029.2 - 0.0
19/10:30pm 11.5 4.9 8.7 83 1.4 ENE 33 35 18 19 1029.3 - 0.0
19/10:00pm 11.6 6.4 9.0 84 1.3 ENE 26 32 14 17 1029.3 - 0.0
19/09:30pm 11.3 6.1 8.7 84 1.3 E 26 32 14 17 1029.3 - 0.0
19/09:00pm 11.1 5.4 8.3 83 1.4 E 28 32 15 17 1029.4 1029.5 0.0
19/08:30pm 11.0 5.2 8.0 82 1.5 E 28 33 15 18 1029.4 - 0.0
19/08:00pm 11.0 4.4 7.7 80 1.6 E 32 35 17 19 1029.1 - 0.0
19/07:30pm 10.9 4.6 7.4 79 1.7 E 30 35 16 19 1029.0 - 0.0
19/07:00pm 10.9 4.5 7.0 77 1.9 E 30 35 16 19 1028.9 - 0.0
19/06:30pm 10.8 4.8 6.9 77 1.9 E 28 33 15 18 1028.6 - 0.0
19/06:00pm 11.0 4.9 6.7 75 2.0 E 28 33 15 18 1028.5 1028.7 0.0
19/05:30pm 11.0 4.5 6.7 75 2.0 E 30 35 16 19 1028.3 - 0.0
19/05:00pm 11.0 4.1 6.6 74 2.1 E 32 37 17 20 1028.1 - 0.0
19/04:30pm 11.1 4.0 6.5 73 2.2 E 33 39 18 21 1028.0 - 0.0
19/04:00pm 11.4 4.0 6.7 73 2.2 E 35 41 19 22 1027.6 - 0.0
19/03:30pm 11.6 3.9 7.1 74 2.2 E 37 41 20 22 1027.5 - 0.0
19/03:00pm 12.0 3.9 6.9 71 2.4 E 39 44 21 24 1027.4 1027.6 0.0
19/02:30pm 12.5 4.4 7.0 69 2.7 E 39 44 21 24 1027.3 - 0.0
19/02:00pm 12.7 5.4 7.0 68 2.8 E 35 41 19 22 1027.6 - 0.0
19/01:30pm 12.7 5.8 6.5 66 3.0 E 32 35 17 19 1027.8 - 0.0
19/01:00pm 12.7 5.9 7.0 68 2.8 E 32 35 17 19 1028.4 - 0.0
19/12:30pm 13.2 7.7 7.6 69 2.8 ESE 26 33 14 18 1028.9 - 0.0
19/12:00pm 13.0 7.5 7.7 70 2.6 ESE 26 30 14 16 1029.4 1029.5 0.0
19/11:30am 12.9 7.5 8.0 72 2.4 ESE 26 32 14 17 1029.8 - 0.0
19/11:00am 12.5 6.6 7.6 72 2.4 ESE 28 33 15 18 1029.7 - 0.0
19/10:30am 12.6 6.7 7.7 72 2.4 E 28 33 15 18 1029.9 - 0.0
19/10:00am 12.1 6.6 7.6 74 2.2 ESE 26 30 14 16 1029.9 - 0.0
19/09:30am 11.8 6.3 7.7 76 2.0 ESE 26 35 14 19 1029.8 - 0.0
19/09:00am 11.0 5.1 7.3 78 1.8 ESE 28 33 15 18 1029.8 1029.9 0.0
19/08:30am 10.6 4.7 7.5 81 1.5 ESE 28 33 15 18 1029.4 - 0.0
19/08:00am 10.0 3.2 7.1 82 1.4 ESE 32 37 17 20 1029.0 - 0.0
19/07:30am 9.7 3.3 6.8 82 1.4 SE 30 35 16 19 1029.1 - 0.0
19/07:00am 9.5 3.0 6.4 81 1.4 SE 30 37 16 20 1028.9 - 0.0
19/06:30am 9.2 2.6 5.9 80 1.5 SE 30 35 16 19 1028.3 - 0.0
19/06:00am 9.4 2.4 5.8 78 1.6 SE 32 39 17 21 1028.0 1028.2 0.0
19/05:30am 9.6 2.3 5.6 76 1.8 SE 33 39 18 21 1027.7 - 0.0
19/05:00am 9.8 2.5 5.6 75 1.9 SE 33 37 18 20 1027.7 - 0.0
19/04:30am 9.6 1.9 5.4 75 1.9 SE 35 43 19 23 1027.6 - 0.0
19/04:00am 9.8 1.4 5.4 74 2.0 SE 39 46 21 25 1027.4 - 0.0
19/03:30am 9.8 2.5 5.4 74 2.0 SE 33 43 18 23 1027.5 - 0.0
19/03:00am 10.0 2.7 5.4 73 2.1 SE 33 41 18 22 1027.8 1028.0 0.0
19/02:30am 10.0 2.3 5.4 73 2.1 SE 35 44 19 24 1027.7 - 0.0
19/02:00am 9.9 1.8 5.3 73 2.1 SE 37 43 20 23 1027.8 - 0.0
19/01:30am 9.9 1.4 5.1 72 2.2 SE 39 46 21 25 1027.8 - 0.0
19/01:00am 9.8 1.3 5.0 72 2.2 SE 39 48 21 26 1027.7 - 0.0
19/12:30am 9.9 0.6 5.1 72 2.2 SE 43 48 23 26 1027.7 - 0.0
19/12:00am 10.1 1.2 5.3 72 2.2 SE 41 50 22 27 1027.7 1027.9 0.0
 
Date/Time
EST
Temp
°C
App
Temp
°C
Dew
Point
°C
Rel
Hum
%
Delta-T
°C
Wind Press
QNH
hPa
Press
MSL
hPa
Rain since
9am
mm
Dir  Spd
km/h
Gust
km/h
Spd
kts
Gust
kts
18/11:30pm 10.7 2.0 5.9 72 2.2 SE 41 46 22 25 1027.5 - 0.0
18/11:00pm 9.9 4.7 5.7 75 1.9 ESE 22 30 12 16 1027.6 - 0.0
18/10:30pm 10.6 5.6 4.7 67 2.7 SSE 20 30 11 16 1027.6 - 0.0
18/10:00pm 10.2 5.7 4.1 66 2.7 SSW 17 22 9 12 1027.4 - 0.0
18/09:30pm 9.8 4.7 4.0 67 2.6 S 20 26 11 14 1027.6 - 0.0
18/09:00pm 10.4 5.7 5.0 69 2.4 S 19 24 10 13 1027.5 1027.7 0.0
18/08:30pm 9.7 4.9 4.5 70 2.3 S 19 24 10 13 1027.4 - 0.0
18/08:00pm 9.4 4.5 4.0 69 2.4 S 19 24 10 13 1027.2 - 0.0
18/07:30pm 10.0 5.2 4.8 70 2.3 SSE 19 26 10 14 1027.1 - 0.0
18/07:00pm 9.4 4.3 4.2 70 2.3 S 20 28 11 15 1026.9 - 0.0
18/06:30pm 10.1 4.8 5.1 71 2.3 S 22 30 12 16 1026.6 - 0.0
18/06:00pm 9.8 3.7 4.6 70 2.3 S 26 32 14 17 1026.3 1026.5 0.0
18/05:30pm 10.2 4.5 5.0 70 2.4 SSW 24 33 13 18 1026.1 - 0.0
18/05:00pm 9.5 4.4 4.3 70 2.3 SSW 20 28 11 15 1025.9 - 0.0
18/04:30pm 9.8 4.4 4.6 70 2.3 SSW 22 30 12 16 1025.6 - 0.0
18/04:00pm 10.3 4.5 4.2 66 2.7 S 24 30 13 16 1025.2 - 0.0
18/03:30pm 10.5 5.4 4.0 64 2.9 SE 20 24 11 13 1025.0 - 0.0
18/03:00pm 11.0 5.3 4.7 65 2.8 SSE 24 30 13 16 1024.9 1025.1 0.0
18/02:30pm 11.3 5.2 5.0 65 2.9 SSE 26 33 14 18 1024.7 - 0.0
18/02:00pm 11.6 5.5 4.8 63 3.1 SSE 26 33 14 18 1024.5 - 0.0
18/01:30pm 12.0 6.6 6.3 68 2.7 SSE 24 30 13 16 1024.5 - 0.0
18/01:00pm 11.7 5.4 5.8 67 2.8 SE 28 35 15 19 1024.5 - 0.0
18/12:30pm 12.1 5.5 5.9 66 2.9 SSE 30 39 16 21 1024.8 - 0.0
18/12:00pm 12.0 5.0 6.7 70 2.5 SSE 33 41 18 22 1024.6 1024.7 0.0
18/11:30am 11.4 4.2 6.1 70 2.5 SSE 33 41 18 22 1024.7 - 0.0
18/11:00am 11.9 5.0 6.6 70 2.5 SSE 32 39 17 21 1024.6 - 0.0
18/10:30am 11.8 4.4 6.7 71 2.4 SSE 35 43 19 23 1024.6 - 0.0
18/10:00am 11.8 5.1 7.3 74 2.2 S 32 39 17 21 1024.3 - 0.0
18/09:30am 11.5 5.2 7.4 76 2.0 S 30 37 16 20 1024.2 - 0.0
18/09:00am 10.8 4.7 6.7 76 1.9 S 28 35 15 19 1023.9 1024.0 1.0
18/08:30am 10.3 4.2 6.5 77 1.8 S 28 35 15 19 1023.7 - 1.0
18/08:00am 9.8 2.6 6.0 77 1.8 S 33 43 18 23 1023.2 - 1.0
18/07:30am 9.7 2.5 5.7 76 1.8 S 33 43 18 23 1022.7 - 1.0
18/07:00am 10.0 2.4 6.0 76 1.9 SSW 35 43 19 23 1022.3 - 1.0
18/06:30am 10.0 2.1 6.0 76 1.9 S 37 43 20 23 1022.1 - 1.0
18/06:00am 10.0 2.4 6.0 76 1.8 S 35 44 19 24 1021.8 1021.9 1.0
18/05:30am 10.1 2.5 5.9 75 1.9 S 35 44 19 24 1021.7 - 1.0
18/05:00am 10.2 1.8 5.6 73 2.1 SSW 39 50 21 27 1021.3 - 1.0
18/04:30am 10.5 1.2 5.7 72 2.2 SSW 44 57 24 31 1020.9 - 1.0
18/04:00am 10.6 2.3 6.0 73 2.1 SSW 39 50 21 27 1020.8 - 1.0
18/03:30am 10.5 2.1 5.7 72 2.2 S 39 50 21 27 1020.6 - 1.0
18/03:00am 10.7 2.4 5.9 72 2.2 S 39 50 21 27 1020.3 1020.4 1.0
18/02:30am 10.3 1.1 5.5 72 2.2 S 43 52 23 28 1020.1 - 1.0
18/02:00am 10.6 1.3 6.0 73 2.1 S 44 56 24 30 1019.9 - 1.0
18/01:30am 10.7 1.6 6.1 73 2.2 S 43 50 23 27 1019.5 - 1.0
18/01:00am 10.7 1.6 6.1 73 2.2 S 43 52 23 28 1019.2 - 1.0
18/12:30am 10.6 1.5 5.8 72 2.2 S 43 54 23 29 1019.2 - 1.0
18/12:00am 10.8 0.3 5.8 71 2.3 S 50 59 27 32 1018.9 1019.1 1.0
 
Date/Time
EST
Temp
°C
App
Temp
°C
Dew
Point
°C
Rel
Hum
%
Delta-T
°C
Wind Press
QNH
hPa
Press
MSL
hPa
Rain since
9am
mm
Dir  Spd
km/h
Gust
km/h
Spd
kts
Gust
kts
17/11:30pm 10.9 0.5 6.1 72 2.3 S 50 61 27 33 1018.7 - 1.0
17/11:00pm 11.0 0.2 6.2 72 2.3 S 52 63 28 34 1018.4 - 1.0
17/10:30pm 11.0 1.4 6.2 72 2.3 S 46 57 25 31 1018.2 - 1.0
17/10:00pm 10.9 1.8 5.9 71 2.3 S 43 56 23 30 1017.9 - 1.0
17/09:30pm 11.3 1.2 5.6 68 2.7 S 48 65 26 35 1017.4 - 1.0
17/09:00pm 11.2 0.7 5.7 69 2.6 S 50 61 27 33 1017.3 1017.4 1.0
17/08:30pm 11.4 2.5 6.7 73 2.2 S 43 56 23 30 1017.2 - 1.0
17/08:00pm 11.6 0.9 6.5 71 2.4 S 52 63 28 34 1016.6 - 1.0
17/07:30pm 11.5 2.6 7.0 74 2.2 S 43 56 23 30 1016.3 - 1.0
17/07:00pm 11.6 2.5 6.9 73 2.3 SSW 44 57 24 31 1015.8 - 1.0
17/06:35pm 11.5 2.0 6.8 73 2.2 SSW 46 65 25 35 1015.3 - 1.0
17/06:30pm 11.6 1.3 6.7 72 2.3 SSW 50 65 27 35 1015.2 - 1.0
17/06:00pm 11.8 2.3 6.5 70 2.5 SSW 46 67 25 36 1014.5 1014.6 1.0
17/05:49pm 11.9 4.2 7.0 72 2.4 SSW 37 56 20 30 1014.4 - 1.0
17/05:30pm 11.8 2.8 7.1 73 2.3 SSW 44 57 24 31 1014.1 - 1.0
17/05:00pm 11.6 2.6 7.3 75 2.1 SSW 44 59 24 32 1013.6 - 1.0
17/04:30pm 11.6 2.8 7.3 75 2.1 SSW 43 57 23 31 1013.3 - 1.0
17/04:00pm 11.8 3.5 7.7 76 2.0 S 41 56 22 30 1012.9 - 1.0

Other Formats:

Comma delimited format used in spreadsheet applications
http://www.bom.gov.au/fwo/IDT60801/IDT60801.94949.axf

JavaScript Object Notation format (JSON) in row-major order
http://www.bom.gov.au/fwo/IDT60801/IDT60801.94949.json